sensor_id;sensor_type;location;lat;lon;timestamp;temperature;humidity
24560;DHT22;12727;49.934;8.656;2023-06-10T00:00:11;18.00;88.90
24560;DHT22;12727;49.934;8.656;2023-06-10T00:02:41;18.00;89.10
24560;DHT22;12727;49.934;8.656;2023-06-10T00:05:08;18.00;89.30
24560;DHT22;12727;49.934;8.656;2023-06-10T00:07:33;17.90;89.90
24560;DHT22;12727;49.934;8.656;2023-06-10T00:10:06;17.80;90.10
24560;DHT22;12727;49.934;8.656;2023-06-10T00:12:32;17.80;90.30
24560;DHT22;12727;49.934;8.656;2023-06-10T00:15:06;17.70;90.50
24560;DHT22;12727;49.934;8.656;2023-06-10T00:17:32;17.60;91.00
24560;DHT22;12727;49.934;8.656;2023-06-10T00:19:58;17.60;91.70
24560;DHT22;12727;49.934;8.656;2023-06-10T00:22:23;17.50;92.20
24560;DHT22;12727;49.934;8.656;2023-06-10T00:24:54;17.40;92.50
24560;DHT22;12727;49.934;8.656;2023-06-10T00:27:20;17.30;92.30
24560;DHT22;12727;49.934;8.656;2023-06-10T00:29:46;17.20;93.00
24560;DHT22;12727;49.934;8.656;2023-06-10T00:32:11;17.10;93.60
24560;DHT22;12727;49.934;8.656;2023-06-10T00:34:37;17.00;94.00
24560;DHT22;12727;49.934;8.656;2023-06-10T00:37:03;16.80;94.30
24560;DHT22;12727;49.934;8.656;2023-06-10T00:39:28;16.80;94.60
24560;DHT22;12727;49.934;8.656;2023-06-10T00:41:55;16.80;95.90
24560;DHT22;12727;49.934;8.656;2023-06-10T00:44:20;16.80;96.20
24560;DHT22;12727;49.934;8.656;2023-06-10T00:46:46;16.80;96.00
24560;DHT22;12727;49.934;8.656;2023-06-10T00:49:12;16.60;96.70
24560;DHT22;12727;49.934;8.656;2023-06-10T00:51:38;16.50;97.00
24560;DHT22;12727;49.934;8.656;2023-06-10T00:54:05;16.40;97.50
24560;DHT22;12727;49.934;8.656;2023-06-10T00:56:31;16.30;98.40
24560;DHT22;12727;49.934;8.656;2023-06-10T00:58:58;16.20;98.60
24560;DHT22;12727;49.934;8.656;2023-06-10T01:01:24;16.20;99.50
24560;DHT22;12727;49.934;8.656;2023-06-10T01:03:50;16.20;99.90
24560;DHT22;12727;49.934;8.656;2023-06-10T01:09:18;16.30;99.90
24560;DHT22;12727;49.934;8.656;2023-06-10T01:12:03;16.30;99.90
24560;DHT22;12727;49.934;8.656;2023-06-10T01:14:33;16.20;99.90
24560;DHT22;12727;49.934;8.656;2023-06-10T01:17:00;16.00;99.90
24560;DHT22;12727;49.934;8.656;2023-06-10T01:19:26;15.80;99.90
24560;DHT22;12727;49.934;8.656;2023-06-10T01:21:53;15.80;99.90
24560;DHT22;12727;49.934;8.656;2023-06-10T01:24:20;15.70;99.90
24560;DHT22;12727;49.934;8.656;2023-06-10T01:26:49;15.70;99.90
24560;DHT22;12727;49.934;8.656;2023-06-10T01:29:46;15.70;99.90
24560;DHT22;12727;49.934;8.656;2023-06-10T01:32:15;15.60;99.90
24560;DHT22;12727;49.934;8.656;2023-06-10T01:34:42;15.60;99.90
24560;DHT22;12727;49.934;8.656;2023-06-10T01:37:13;15.60;99.90
24560;DHT22;12727;49.934;8.656;2023-06-10T01:39:41;15.50;99.90
24560;DHT22;12727;49.934;8.656;2023-06-10T01:42:08;15.60;99.90
24560;DHT22;12727;49.934;8.656;2023-06-10T01:44:35;15.60;99.90
24560;DHT22;12727;49.934;8.656;2023-06-10T01:47:01;15.60;99.90
24560;DHT22;12727;49.934;8.656;2023-06-10T01:49:26;15.60;99.90
24560;DHT22;12727;49.934;8.656;2023-06-10T01:51:53;15.50;99.90
24560;DHT22;12727;49.934;8.656;2023-06-10T01:54:19;15.40;99.90
24560;DHT22;12727;49.934;8.656;2023-06-10T01:56:45;15.30;99.90
24560;DHT22;12727;49.934;8.656;2023-06-10T01:59:10;15.20;99.90
24560;DHT22;12727;49.934;8.656;2023-06-10T02:01:36;15.10;99.90
24560;DHT22;12727;49.934;8.656;2023-06-10T02:04:01;15.10;99.90
24560;DHT22;12727;49.934;8.656;2023-06-10T02:06:27;15.20;99.90
24560;DHT22;12727;49.934;8.656;2023-06-10T02:08:53;15.20;99.90
24560;DHT22;12727;49.934;8.656;2023-06-10T02:11:18;15.30;99.90
24560;DHT22;12727;49.934;8.656;2023-06-10T02:13:44;15.30;99.90
24560;DHT22;12727;49.934;8.656;2023-06-10T02:16:09;15.40;99.90
24560;DHT22;12727;49.934;8.656;2023-06-10T02:18:38;15.40;99.90
24560;DHT22;12727;49.934;8.656;2023-06-10T02:21:06;15.40;99.90
24560;DHT22;12727;49.934;8.656;2023-06-10T02:23:32;15.40;99.90
24560;DHT22;12727;49.934;8.656;2023-06-10T02:25:57;15.40;99.90
24560;DHT22;12727;49.934;8.656;2023-06-10T02:28:23;15.30;99.90
24560;DHT22;12727;49.934;8.656;2023-06-10T02:30:48;15.10;99.90
24560;DHT22;12727;49.934;8.656;2023-06-10T02:33:14;15.10;99.90
24560;DHT22;12727;49.934;8.656;2023-06-10T02:35:40;15.00;99.90
24560;DHT22;12727;49.934;8.656;2023-06-10T02:38:06;14.90;99.90
24560;DHT22;12727;49.934;8.656;2023-06-10T02:40:32;14.80;99.90
24560;DHT22;12727;49.934;8.656;2023-06-10T02:42:58;14.90;99.90
24560;DHT22;12727;49.934;8.656;2023-06-10T02:45:24;14.90;99.90
24560;DHT22;12727;49.934;8.656;2023-06-10T02:47:50;14.90;99.90
24560;DHT22;12727;49.934;8.656;2023-06-10T02:50:16;14.90;99.90
24560;DHT22;12727;49.934;8.656;2023-06-10T02:52:42;14.80;99.90
24560;DHT22;12727;49.934;8.656;2023-06-10T02:55:07;14.80;99.90
24560;DHT22;12727;49.934;8.656;2023-06-10T02:57:33;14.80;99.90
24560;DHT22;12727;49.934;8.656;2023-06-10T02:59:58;14.70;99.90
24560;DHT22;12727;49.934;8.656;2023-06-10T03:02:25;14.60;99.90
24560;DHT22;12727;49.934;8.656;2023-06-10T03:04:57;14.50;99.90
24560;DHT22;12727;49.934;8.656;2023-06-10T03:07:23;14.50;99.90
24560;DHT22;12727;49.934;8.656;2023-06-10T03:09:49;14.50;99.90
24560;DHT22;12727;49.934;8.656;2023-06-10T03:12:15;14.60;99.90
24560;DHT22;12727;49.934;8.656;2023-06-10T03:14:42;14.80;99.90
24560;DHT22;12727;49.934;8.656;2023-06-10T03:17:07;14.90;99.90
24560;DHT22;12727;49.934;8.656;2023-06-10T03:19:34;14.90;99.90
24560;DHT22;12727;49.934;8.656;2023-06-10T03:22:14;14.90;99.90
24560;DHT22;12727;49.934;8.656;2023-06-10T03:24:40;14.80;99.90
24560;DHT22;12727;49.934;8.656;2023-06-10T03:27:07;14.50;99.90
24560;DHT22;12727;49.934;8.656;2023-06-10T03:29:33;14.70;99.90
24560;DHT22;12727;49.934;8.656;2023-06-10T03:31:59;14.90;99.90
24560;DHT22;12727;49.934;8.656;2023-06-10T03:34:25;14.80;99.90
24560;DHT22;12727;49.934;8.656;2023-06-10T03:36:50;14.90;99.90
24560;DHT22;12727;49.934;8.656;2023-06-10T03:39:16;14.80;99.90
24560;DHT22;12727;49.934;8.656;2023-06-10T03:41:41;14.80;99.90
24560;DHT22;12727;49.934;8.656;2023-06-10T03:44:07;14.60;99.90
24560;DHT22;12727;49.934;8.656;2023-06-10T03:46:32;14.40;99.90
24560;DHT22;12727;49.934;8.656;2023-06-10T03:48:58;14.50;99.90
24560;DHT22;12727;49.934;8.656;2023-06-10T03:51:26;14.50;99.90
24560;DHT22;12727;49.934;8.656;2023-06-10T03:53:53;14.40;99.90
24560;DHT22;12727;49.934;8.656;2023-06-10T03:56:18;14.40;99.90
24560;DHT22;12727;49.934;8.656;2023-06-10T03:58:44;14.60;99.90
24560;DHT22;12727;49.934;8.656;2023-06-10T04:01:10;14.80;99.90
24560;DHT22;12727;49.934;8.656;2023-06-10T04:03:36;15.00;99.90
24560;DHT22;12727;49.934;8.656;2023-06-10T04:06:08;14.90;99.90
24560;DHT22;12727;49.934;8.656;2023-06-10T04:08:34;15.00;99.90
24560;DHT22;12727;49.934;8.656;2023-06-10T04:11:00;15.00;99.90
24560;DHT22;12727;49.934;8.656;2023-06-10T04:13:26;14.90;99.90
24560;DHT22;12727;49.934;8.656;2023-06-10T04:15:53;14.90;99.90
24560;DHT22;12727;49.934;8.656;2023-06-10T04:18:19;14.90;99.90
24560;DHT22;12727;49.934;8.656;2023-06-10T04:20:46;15.00;99.90
24560;DHT22;12727;49.934;8.656;2023-06-10T04:23:12;15.10;99.90
24560;DHT22;12727;49.934;8.656;2023-06-10T04:25:37;15.20;99.90
24560;DHT22;12727;49.934;8.656;2023-06-10T04:28:03;15.50;99.90
24560;DHT22;12727;49.934;8.656;2023-06-10T04:30:29;15.80;99.90
24560;DHT22;12727;49.934;8.656;2023-06-10T04:32:56;15.90;99.90
24560;DHT22;12727;49.934;8.656;2023-06-10T04:35:22;16.10;99.90
24560;DHT22;12727;49.934;8.656;2023-06-10T04:37:47;16.20;99.90
24560;DHT22;12727;49.934;8.656;2023-06-10T04:40:13;16.30;99.90
24560;DHT22;12727;49.934;8.656;2023-06-10T04:42:41;16.40;99.90
24560;DHT22;12727;49.934;8.656;2023-06-10T04:45:07;16.50;99.90
24560;DHT22;12727;49.934;8.656;2023-06-10T04:47:33;16.60;99.90
24560;DHT22;12727;49.934;8.656;2023-06-10T04:50:02;16.50;99.90
24560;DHT22;12727;49.934;8.656;2023-06-10T04:52:28;16.50;99.90
24560;DHT22;12727;49.934;8.656;2023-06-10T04:54:54;16.50;99.90
24560;DHT22;12727;49.934;8.656;2023-06-10T04:57:20;16.70;99.90
24560;DHT22;12727;49.934;8.656;2023-06-10T04:59:46;16.80;99.90
24560;DHT22;12727;49.934;8.656;2023-06-10T05:02:12;16.90;99.90
24560;DHT22;12727;49.934;8.656;2023-06-10T05:04:38;17.10;99.90
24560;DHT22;12727;49.934;8.656;2023-06-10T05:07:04;17.30;99.90
24560;DHT22;12727;49.934;8.656;2023-06-10T05:09:30;17.50;99.90
24560;DHT22;12727;49.934;8.656;2023-06-10T05:11:56;17.70;99.90
24560;DHT22;12727;49.934;8.656;2023-06-10T05:14:21;17.80;99.90
24560;DHT22;12727;49.934;8.656;2023-06-10T05:16:48;17.80;99.90
24560;DHT22;12727;49.934;8.656;2023-06-10T05:19:14;17.80;99.90
24560;DHT22;12727;49.934;8.656;2023-06-10T05:21:41;17.80;99.90
24560;DHT22;12727;49.934;8.656;2023-06-10T05:24:07;17.90;99.90
24560;DHT22;12727;49.934;8.656;2023-06-10T05:26:33;18.00;99.90
24560;DHT22;12727;49.934;8.656;2023-06-10T05:29:02;18.00;99.90
24560;DHT22;12727;49.934;8.656;2023-06-10T05:31:28;18.10;99.90
24560;DHT22;12727;49.934;8.656;2023-06-10T05:33:54;18.30;99.90
24560;DHT22;12727;49.934;8.656;2023-06-10T05:36:19;18.40;99.90
24560;DHT22;12727;49.934;8.656;2023-06-10T05:38:45;18.60;99.90
24560;DHT22;12727;49.934;8.656;2023-06-10T05:41:11;18.80;99.90
24560;DHT22;12727;49.934;8.656;2023-06-10T05:43:37;19.00;99.90
24560;DHT22;12727;49.934;8.656;2023-06-10T05:46:02;19.30;99.90
24560;DHT22;12727;49.934;8.656;2023-06-10T05:48:28;19.50;99.90
24560;DHT22;12727;49.934;8.656;2023-06-10T05:50:54;19.70;99.90
24560;DHT22;12727;49.934;8.656;2023-06-10T05:53:19;20.00;99.90
24560;DHT22;12727;49.934;8.656;2023-06-10T05:55:46;20.20;99.90
24560;DHT22;12727;49.934;8.656;2023-06-10T05:58:14;20.40;99.90
24560;DHT22;12727;49.934;8.656;2023-06-10T06:00:40;20.50;99.60
24560;DHT22;12727;49.934;8.656;2023-06-10T06:03:06;20.80;99.60
24560;DHT22;12727;49.934;8.656;2023-06-10T06:05:33;20.90;98.80
24560;DHT22;12727;49.934;8.656;2023-06-10T06:08:01;21.00;98.10
24560;DHT22;12727;49.934;8.656;2023-06-10T06:10:27;21.20;97.20
24560;DHT22;12727;49.934;8.656;2023-06-10T06:12:55;21.40;96.10
24560;DHT22;12727;49.934;8.656;2023-06-10T06:15:21;21.50;95.30
24560;DHT22;12727;49.934;8.656;2023-06-10T06:17:46;21.60;94.50
24560;DHT22;12727;49.934;8.656;2023-06-10T06:20:12;21.90;94.30
24560;DHT22;12727;49.934;8.656;2023-06-10T06:22:38;22.10;93.20
24560;DHT22;12727;49.934;8.656;2023-06-10T06:25:04;22.20;92.70
24560;DHT22;12727;49.934;8.656;2023-06-10T06:27:30;22.30;92.20
24560;DHT22;12727;49.934;8.656;2023-06-10T06:29:56;22.60;91.60
24560;DHT22;12727;49.934;8.656;2023-06-10T06:32:21;22.60;90.70
24560;DHT22;12727;49.934;8.656;2023-06-10T06:34:48;22.90;90.70
24560;DHT22;12727;49.934;8.656;2023-06-10T06:37:22;22.90;89.40
24560;DHT22;12727;49.934;8.656;2023-06-10T06:39:52;22.80;88.60
24560;DHT22;12727;49.934;8.656;2023-06-10T06:42:19;22.90;87.60
24560;DHT22;12727;49.934;8.656;2023-06-10T06:44:45;23.00;87.30
24560;DHT22;12727;49.934;8.656;2023-06-10T06:47:11;23.10;83.70
24560;DHT22;12727;49.934;8.656;2023-06-10T06:49:37;23.10;83.90
24560;DHT22;12727;49.934;8.656;2023-06-10T06:52:03;23.20;83.70
24560;DHT22;12727;49.934;8.656;2023-06-10T06:54:29;23.30;83.20
24560;DHT22;12727;49.934;8.656;2023-06-10T06:56:55;23.60;80.80
24560;DHT22;12727;49.934;8.656;2023-06-10T06:59:20;23.90;81.00
24560;DHT22;12727;49.934;8.656;2023-06-10T07:01:46;24.10;80.10
24560;DHT22;12727;49.934;8.656;2023-06-10T07:04:14;24.10;79.60
24560;DHT22;12727;49.934;8.656;2023-06-10T07:06:39;24.10;79.40
24560;DHT22;12727;49.934;8.656;2023-06-10T07:09:05;24.00;78.20
24560;DHT22;12727;49.934;8.656;2023-06-10T07:11:31;24.30;76.90
24560;DHT22;12727;49.934;8.656;2023-06-10T07:13:57;24.60;76.50
24560;DHT22;12727;49.934;8.656;2023-06-10T07:16:23;24.70;75.10
24560;DHT22;12727;49.934;8.656;2023-06-10T07:18:48;24.70;75.10
24560;DHT22;12727;49.934;8.656;2023-06-10T07:21:14;24.70;74.40
24560;DHT22;12727;49.934;8.656;2023-06-10T07:23:43;24.80;73.50
24560;DHT22;12727;49.934;8.656;2023-06-10T07:26:09;24.70;71.20
24560;DHT22;12727;49.934;8.656;2023-06-10T07:28:37;24.70;71.00
24560;DHT22;12727;49.934;8.656;2023-06-10T07:31:03;24.70;71.80
24560;DHT22;12727;49.934;8.656;2023-06-10T07:33:29;25.10;71.30
24560;DHT22;12727;49.934;8.656;2023-06-10T07:35:55;25.30;72.50
24560;DHT22;12727;49.934;8.656;2023-06-10T07:38:20;25.60;71.30
24560;DHT22;12727;49.934;8.656;2023-06-10T07:40:46;25.90;70.30
24560;DHT22;12727;49.934;8.656;2023-06-10T07:43:12;25.90;70.30
24560;DHT22;12727;49.934;8.656;2023-06-10T07:45:40;25.80;69.10
24560;DHT22;12727;49.934;8.656;2023-06-10T07:48:05;25.80;68.60
24560;DHT22;12727;49.934;8.656;2023-06-10T07:50:31;25.80;66.00
24560;DHT22;12727;49.934;8.656;2023-06-10T07:52:56;25.70;68.00
24560;DHT22;12727;49.934;8.656;2023-06-10T07:55:22;26.20;68.10
24560;DHT22;12727;49.934;8.656;2023-06-10T07:57:48;26.60;66.00
24560;DHT22;12727;49.934;8.656;2023-06-10T08:00:13;26.50;65.90
24560;DHT22;12727;49.934;8.656;2023-06-10T08:02:39;26.70;65.80
24560;DHT22;12727;49.934;8.656;2023-06-10T08:05:05;26.70;64.50
24560;DHT22;12727;49.934;8.656;2023-06-10T08:07:31;26.90;64.10
24560;DHT22;12727;49.934;8.656;2023-06-10T08:09:57;26.90;63.50
24560;DHT22;12727;49.934;8.656;2023-06-10T08:12:23;27.10;63.50
24560;DHT22;12727;49.934;8.656;2023-06-10T08:14:48;27.50;62.50
24560;DHT22;12727;49.934;8.656;2023-06-10T08:17:14;27.80;61.70
24560;DHT22;12727;49.934;8.656;2023-06-10T08:19:40;27.90;61.90
24560;DHT22;12727;49.934;8.656;2023-06-10T08:22:05;27.60;61.90
24560;DHT22;12727;49.934;8.656;2023-06-10T08:24:31;27.70;62.10
24560;DHT22;12727;49.934;8.656;2023-06-10T08:26:57;28.00;61.90
24560;DHT22;12727;49.934;8.656;2023-06-10T08:29:23;27.80;61.00
24560;DHT22;12727;49.934;8.656;2023-06-10T08:31:49;27.90;60.10
24560;DHT22;12727;49.934;8.656;2023-06-10T08:34:15;28.00;59.40
24560;DHT22;12727;49.934;8.656;2023-06-10T08:36:40;28.10;59.10
24560;DHT22;12727;49.934;8.656;2023-06-10T08:39:06;28.40;59.20
24560;DHT22;12727;49.934;8.656;2023-06-10T08:41:36;28.50;59.30
24560;DHT22;12727;49.934;8.656;2023-06-10T08:44:20;28.70;59.30
24560;DHT22;12727;49.934;8.656;2023-06-10T08:46:48;29.40;58.50
24560;DHT22;12727;49.934;8.656;2023-06-10T08:49:18;29.40;57.40
24560;DHT22;12727;49.934;8.656;2023-06-10T08:51:50;29.20;56.30
24560;DHT22;12727;49.934;8.656;2023-06-10T08:54:21;28.90;56.40
24560;DHT22;12727;49.934;8.656;2023-06-10T08:56:51;29.00;57.60
24560;DHT22;12727;49.934;8.656;2023-06-10T08:59:18;29.20;56.90
24560;DHT22;12727;49.934;8.656;2023-06-10T09:01:46;29.60;56.90
24560;DHT22;12727;49.934;8.656;2023-06-10T09:04:12;30.30;55.60
24560;DHT22;12727;49.934;8.656;2023-06-10T09:06:38;30.10;55.50
24560;DHT22;12727;49.934;8.656;2023-06-10T09:09:06;29.90;54.70
24560;DHT22;12727;49.934;8.656;2023-06-10T09:11:33;30.20;54.60
24560;DHT22;12727;49.934;8.656;2023-06-10T09:13:59;29.60;55.30
24560;DHT22;12727;49.934;8.656;2023-06-10T09:16:25;30.10;55.40
24560;DHT22;12727;49.934;8.656;2023-06-10T09:18:51;30.40;55.40
24560;DHT22;12727;49.934;8.656;2023-06-10T09:21:24;30.40;54.60
24560;DHT22;12727;49.934;8.656;2023-06-10T09:23:53;30.00;53.90
24560;DHT22;12727;49.934;8.656;2023-06-10T09:26:18;29.70;54.40
24560;DHT22;12727;49.934;8.656;2023-06-10T09:28:48;30.20;54.40
24560;DHT22;12727;49.934;8.656;2023-06-10T09:31:14;30.80;53.30
24560;DHT22;12727;49.934;8.656;2023-06-10T09:33:44;31.10;51.80
24560;DHT22;12727;49.934;8.656;2023-06-10T09:36:09;30.50;54.00
24560;DHT22;12727;49.934;8.656;2023-06-10T09:38:35;30.80;53.10
24560;DHT22;12727;49.934;8.656;2023-06-10T09:41:01;30.60;53.40
24560;DHT22;12727;49.934;8.656;2023-06-10T09:43:44;30.50;52.90
24560;DHT22;12727;49.934;8.656;2023-06-10T09:46:18;30.40;52.60
24560;DHT22;12727;49.934;8.656;2023-06-10T09:48:45;31.20;52.80
24560;DHT22;12727;49.934;8.656;2023-06-10T09:51:13;31.30;52.00
24560;DHT22;12727;49.934;8.656;2023-06-10T09:53:39;31.10;52.60
24560;DHT22;12727;49.934;8.656;2023-06-10T09:56:05;30.70;52.20
24560;DHT22;12727;49.934;8.656;2023-06-10T09:58:37;30.50;52.90
24560;DHT22;12727;49.934;8.656;2023-06-10T10:01:09;30.20;52.20
24560;DHT22;12727;49.934;8.656;2023-06-10T10:03:43;31.00;52.40
24560;DHT22;12727;49.934;8.656;2023-06-10T10:06:09;31.40;50.80
24560;DHT22;12727;49.934;8.656;2023-06-10T10:08:35;31.60;51.00
24560;DHT22;12727;49.934;8.656;2023-06-10T10:11:01;31.70;50.80
24560;DHT22;12727;49.934;8.656;2023-06-10T10:13:28;31.40;49.80
24560;DHT22;12727;49.934;8.656;2023-06-10T10:15:56;31.40;49.90
24560;DHT22;12727;49.934;8.656;2023-06-10T10:18:26;31.50;49.20
24560;DHT22;12727;49.934;8.656;2023-06-10T10:20:55;31.90;49.10
24560;DHT22;12727;49.934;8.656;2023-06-10T10:23:52;31.70;48.60
24560;DHT22;12727;49.934;8.656;2023-06-10T10:26:18;31.50;47.00
24560;DHT22;12727;49.934;8.656;2023-06-10T10:28:53;32.00;48.40
24560;DHT22;12727;49.934;8.656;2023-06-10T10:31:24;32.60;48.40
24560;DHT22;12727;49.934;8.656;2023-06-10T10:33:55;32.40;47.40
24560;DHT22;12727;49.934;8.656;2023-06-10T10:36:23;32.10;47.10
24560;DHT22;12727;49.934;8.656;2023-06-10T10:38:49;32.00;47.50
24560;DHT22;12727;49.934;8.656;2023-06-10T10:41:15;31.90;47.30
24560;DHT22;12727;49.934;8.656;2023-06-10T10:43:44;32.00;48.20
24560;DHT22;12727;49.934;8.656;2023-06-10T10:46:16;32.70;46.90
24560;DHT22;12727;49.934;8.656;2023-06-10T10:48:43;31.80;46.40
24560;DHT22;12727;49.934;8.656;2023-06-10T10:51:11;31.40;48.80
24560;DHT22;12727;49.934;8.656;2023-06-10T10:53:38;31.40;49.20
24560;DHT22;12727;49.934;8.656;2023-06-10T10:56:16;31.50;48.60
24560;DHT22;12727;49.934;8.656;2023-06-10T10:59:04;31.60;47.30
24560;DHT22;12727;49.934;8.656;2023-06-10T11:01:41;31.20;45.70
24560;DHT22;12727;49.934;8.656;2023-06-10T11:04:08;31.30;47.60
24560;DHT22;12727;49.934;8.656;2023-06-10T11:06:37;30.60;48.50
24560;DHT22;12727;49.934;8.656;2023-06-10T11:09:25;30.70;48.40
24560;DHT22;12727;49.934;8.656;2023-06-10T11:11:52;30.70;47.40
24560;DHT22;12727;49.934;8.656;2023-06-10T11:14:27;29.70;49.00
24560;DHT22;12727;49.934;8.656;2023-06-10T11:16:59;29.60;50.10
24560;DHT22;12727;49.934;8.656;2023-06-10T11:19:34;29.40;48.40
24560;DHT22;12727;49.934;8.656;2023-06-10T11:22:08;28.80;49.70
24560;DHT22;12727;49.934;8.656;2023-06-10T11:24:35;28.90;49.70
24560;DHT22;12727;49.934;8.656;2023-06-10T11:27:38;28.80;48.30
24560;DHT22;12727;49.934;8.656;2023-06-10T11:30:18;28.70;48.80
24560;DHT22;12727;49.934;8.656;2023-06-10T11:32:51;28.70;49.20
24560;DHT22;12727;49.934;8.656;2023-06-10T11:35:19;28.90;49.00
24560;DHT22;12727;49.934;8.656;2023-06-10T11:37:45;29.10;48.80
24560;DHT22;12727;49.934;8.656;2023-06-10T11:40:11;29.10;48.20
24560;DHT22;12727;49.934;8.656;2023-06-10T11:42:40;29.10;48.50
24560;DHT22;12727;49.934;8.656;2023-06-10T11:45:06;29.00;48.90
24560;DHT22;12727;49.934;8.656;2023-06-10T11:47:34;28.80;49.20
24560;DHT22;12727;49.934;8.656;2023-06-10T11:49:59;28.60;48.60
24560;DHT22;12727;49.934;8.656;2023-06-10T11:52:31;28.60;49.50
24560;DHT22;12727;49.934;8.656;2023-06-10T11:54:59;28.40;48.70
24560;DHT22;12727;49.934;8.656;2023-06-10T11:57:24;28.40;49.50
24560;DHT22;12727;49.934;8.656;2023-06-10T11:59:50;28.40;49.90
24560;DHT22;12727;49.934;8.656;2023-06-10T12:02:17;28.40;49.30
24560;DHT22;12727;49.934;8.656;2023-06-10T12:04:44;28.50;48.70
24560;DHT22;12727;49.934;8.656;2023-06-10T12:07:17;28.60;49.10
24560;DHT22;12727;49.934;8.656;2023-06-10T12:09:44;28.80;48.20
24560;DHT22;12727;49.934;8.656;2023-06-10T12:12:10;29.00;46.80
24560;DHT22;12727;49.934;8.656;2023-06-10T12:20:47;29.20;46.80
24560;DHT22;12727;49.934;8.656;2023-06-10T12:22:48;29.10;46.30
24560;DHT22;12727;49.934;8.656;2023-06-10T12:25:13;29.10;46.10
24560;DHT22;12727;49.934;8.656;2023-06-10T12:27:49;29.10;46.30
24560;DHT22;12727;49.934;8.656;2023-06-10T12:30:19;28.80;45.90
24560;DHT22;12727;49.934;8.656;2023-06-10T12:32:46;29.00;46.30
24560;DHT22;12727;49.934;8.656;2023-06-10T12:35:16;29.00;45.70
24560;DHT22;12727;49.934;8.656;2023-06-10T12:37:53;29.00;45.10
24560;DHT22;12727;49.934;8.656;2023-06-10T12:40:26;28.90;45.10
24560;DHT22;12727;49.934;8.656;2023-06-10T12:42:53;29.00;45.10
24560;DHT22;12727;49.934;8.656;2023-06-10T12:45:27;29.00;45.10
24560;DHT22;12727;49.934;8.656;2023-06-10T12:48:11;28.90;45.80
24560;DHT22;12727;49.934;8.656;2023-06-10T12:50:41;28.80;44.50
24560;DHT22;12727;49.934;8.656;2023-06-10T12:53:11;28.80;44.60
24560;DHT22;12727;49.934;8.656;2023-06-10T12:55:37;28.90;44.90
24560;DHT22;12727;49.934;8.656;2023-06-10T12:58:03;28.90;45.00
24560;DHT22;12727;49.934;8.656;2023-06-10T13:00:29;29.00;45.60
24560;DHT22;12727;49.934;8.656;2023-06-10T13:03:00;29.00;45.10
24560;DHT22;12727;49.934;8.656;2023-06-10T13:05:31;29.00;44.40
24560;DHT22;12727;49.934;8.656;2023-06-10T13:07:57;29.00;44.80
24560;DHT22;12727;49.934;8.656;2023-06-10T13:10:23;29.10;43.80
24560;DHT22;12727;49.934;8.656;2023-06-10T13:12:49;29.10;44.20
24560;DHT22;12727;49.934;8.656;2023-06-10T13:15:16;29.10;44.60
24560;DHT22;12727;49.934;8.656;2023-06-10T13:17:45;29.20;44.80
24560;DHT22;12727;49.934;8.656;2023-06-10T13:20:14;29.30;44.30
24560;DHT22;12727;49.934;8.656;2023-06-10T13:22:40;29.30;44.40
24560;DHT22;12727;49.934;8.656;2023-06-10T13:25:06;29.20;45.10
24560;DHT22;12727;49.934;8.656;2023-06-10T13:27:35;29.20;44.30
24560;DHT22;12727;49.934;8.656;2023-06-10T13:30:04;29.10;45.00
24560;DHT22;12727;49.934;8.656;2023-06-10T13:32:31;29.10;46.30
24560;DHT22;12727;49.934;8.656;2023-06-10T13:34:56;29.20;46.20
24560;DHT22;12727;49.934;8.656;2023-06-10T13:37:22;29.10;46.40
24560;DHT22;12727;49.934;8.656;2023-06-10T13:39:48;29.10;46.40
24560;DHT22;12727;49.934;8.656;2023-06-10T13:42:19;29.20;46.20
24560;DHT22;12727;49.934;8.656;2023-06-10T13:44:45;29.30;45.50
24560;DHT22;12727;49.934;8.656;2023-06-10T13:47:11;29.30;45.90
24560;DHT22;12727;49.934;8.656;2023-06-10T13:49:36;29.30;45.70
24560;DHT22;12727;49.934;8.656;2023-06-10T13:52:03;29.40;46.00
24560;DHT22;12727;49.934;8.656;2023-06-10T13:54:28;29.40;45.10
24560;DHT22;12727;49.934;8.656;2023-06-10T13:56:54;29.30;46.20
24560;DHT22;12727;49.934;8.656;2023-06-10T13:59:20;29.30;47.20
24560;DHT22;12727;49.934;8.656;2023-06-10T14:01:46;29.10;46.90
24560;DHT22;12727;49.934;8.656;2023-06-10T14:04:12;28.90;46.10
24560;DHT22;12727;49.934;8.656;2023-06-10T14:06:38;28.70;46.80
24560;DHT22;12727;49.934;8.656;2023-06-10T14:09:04;28.80;48.50
24560;DHT22;12727;49.934;8.656;2023-06-10T14:11:30;28.80;47.00
24560;DHT22;12727;49.934;8.656;2023-06-10T14:13:56;28.70;46.10
24560;DHT22;12727;49.934;8.656;2023-06-10T14:16:23;28.80;46.80
24560;DHT22;12727;49.934;8.656;2023-06-10T14:18:49;28.80;48.10
24560;DHT22;12727;49.934;8.656;2023-06-10T14:21:16;28.90;47.60
24560;DHT22;12727;49.934;8.656;2023-06-10T14:23:41;29.10;49.50
24560;DHT22;12727;49.934;8.656;2023-06-10T14:26:08;29.30;48.10
24560;DHT22;12727;49.934;8.656;2023-06-10T14:28:34;29.40;48.20
24560;DHT22;12727;49.934;8.656;2023-06-10T14:30:59;29.30;47.90
24560;DHT22;12727;49.934;8.656;2023-06-10T14:33:25;29.20;47.10
24560;DHT22;12727;49.934;8.656;2023-06-10T14:35:50;29.30;46.30
24560;DHT22;12727;49.934;8.656;2023-06-10T14:38:16;29.40;46.60
24560;DHT22;12727;49.934;8.656;2023-06-10T14:40:42;29.40;47.70
24560;DHT22;12727;49.934;8.656;2023-06-10T14:43:07;29.50;47.60
24560;DHT22;12727;49.934;8.656;2023-06-10T14:45:36;29.40;47.60
24560;DHT22;12727;49.934;8.656;2023-06-10T14:48:03;29.20;47.80
24560;DHT22;12727;49.934;8.656;2023-06-10T14:50:28;29.20;48.40
24560;DHT22;12727;49.934;8.656;2023-06-10T14:52:54;29.10;48.50
24560;DHT22;12727;49.934;8.656;2023-06-10T14:55:19;29.10;48.80
24560;DHT22;12727;49.934;8.656;2023-06-10T14:57:45;29.00;49.00
24560;DHT22;12727;49.934;8.656;2023-06-10T15:00:11;28.90;50.10
24560;DHT22;12727;49.934;8.656;2023-06-10T15:02:40;28.70;50.90
24560;DHT22;12727;49.934;8.656;2023-06-10T15:05:06;28.60;50.80
24560;DHT22;12727;49.934;8.656;2023-06-10T15:07:32;28.40;51.00
24560;DHT22;12727;49.934;8.656;2023-06-10T15:09:57;28.30;51.60
24560;DHT22;12727;49.934;8.656;2023-06-10T15:12:23;28.20;52.00
24560;DHT22;12727;49.934;8.656;2023-06-10T15:14:50;28.20;52.40
24560;DHT22;12727;49.934;8.656;2023-06-10T15:17:15;28.20;52.50
24560;DHT22;12727;49.934;8.656;2023-06-10T15:19:41;28.10;51.80
24560;DHT22;12727;49.934;8.656;2023-06-10T15:22:07;28.10;51.80
24560;DHT22;12727;49.934;8.656;2023-06-10T15:24:32;28.10;52.00
24560;DHT22;12727;49.934;8.656;2023-06-10T15:26:58;28.10;52.00
24560;DHT22;12727;49.934;8.656;2023-06-10T15:29:23;28.10;50.90
24560;DHT22;12727;49.934;8.656;2023-06-10T15:31:49;28.20;50.80
24560;DHT22;12727;49.934;8.656;2023-06-10T15:34:14;28.20;51.00
24560;DHT22;12727;49.934;8.656;2023-06-10T15:36:40;28.30;51.60
24560;DHT22;12727;49.934;8.656;2023-06-10T15:39:06;28.30;51.30